Time;durP1;ratioP1;P1;durP2;ratioP2;P2;SDS_P1;SDS_P2;PMS_P1;PMS_P2;Temp;Humidity;BMP_temperature;BMP_pressure;BME280_temperature;BME280_humidity;BME280_pressure;Samples;Min_cycle;Max_cycle;Signal;HPM_P1;HPM_P2
2022/07/20 00:00:17;;;;;;;11.25;7.28;;;;;;;;;;8388067;28;20056;-87
2022/07/20 00:04:39;;;;;;;11.73;7.60;;;;;;;;;;8387643;28;20051;-88
2022/07/20 00:13:02;;;;;;;12.93;7.43;;;;;;;;;;8375800;28;20050;-87
2022/07/20 00:17:05;;;;;;;11.52;7.57;;;;;;;;;;8391945;28;20287;-87
2022/07/20 00:21:07;;;;;;;11.57;7.63;;;;;;;;;;8395792;28;20566;-87
2022/07/20 00:25:11;;;;;;;11.50;7.53;;;;;;;;;;8393481;28;20049;-87
2022/07/20 00:29:14;;;;;;;11.43;7.68;;;;;;;;;;8389668;28;20408;-88
2022/07/20 00:33:16;;;;;;;14.23;7.82;;;;;;;;;;8392531;28;20052;-89
2022/07/20 00:37:19;;;;;;;10.48;7.45;;;;;;;;;;8383344;28;20603;-88
2022/07/20 00:41:23;;;;;;;14.52;7.70;;;;;;;;;;8381280;28;20097;-86
2022/07/20 00:45:26;;;;;;;13.45;7.97;;;;;;;;;;8394063;28;20115;-87
2022/07/20 00:49:28;;;;;;;10.57;7.78;;;;;;;;;;8385066;28;20045;-87
2022/07/20 00:53:31;;;;;;;11.32;7.47;;;;;;;;;;8372754;28;20072;-87
2022/07/20 00:57:35;;;;;;;12.18;8.55;;;;;;;;;;8393297;28;20037;-87
2022/07/20 01:01:39;;;;;;;11.75;7.78;;;;;;;;;;8395570;28;20127;-87
2022/07/20 01:05:42;;;;;;;12.30;8.32;;;;;;;;;;8370140;28;20072;-88
2022/07/20 01:09:45;;;;;;;12.48;8.25;;;;;;;;;;8382995;28;20040;-86
2022/07/20 01:13:49;;;;;;;12.23;8.25;;;;;;;;;;8388451;28;20123;-86
2022/07/20 01:17:52;;;;;;;15.52;9.00;;;;;;;;;;8383549;28;20370;-87
2022/07/20 01:21:56;;;;;;;14.43;8.32;;;;;;;;;;8401865;28;20507;-86
2022/07/20 01:25:58;;;;;;;12.07;7.90;;;;;;;;;;8386738;28;20445;-86
2022/07/20 01:30:01;;;;;;;11.63;7.35;;;;;;;;;;8398769;28;20044;-86
2022/07/20 01:34:05;;;;;;;16.50;8.43;;;;;;;;;;8395930;28;20458;-88
2022/07/20 01:38:09;;;;;;;12.85;8.50;;;;;;;;;;8397433;28;20064;-86
2022/07/20 01:42:11;;;;;;;10.55;7.53;;;;;;;;;;8395359;28;20056;-86
2022/07/20 01:46:14;;;;;;;14.18;7.53;;;;;;;;;;8400650;28;20056;-87
2022/07/20 01:50:16;;;;;;;10.80;7.53;;;;;;;;;;8389479;28;20119;-86
2022/07/20 01:54:20;;;;;;;13.60;8.30;;;;;;;;;;8400759;28;20094;-85
2022/07/20 01:58:23;;;;;;;11.75;8.15;;;;;;;;;;8400372;28;20047;-86
2022/07/20 02:02:26;;;;;;;12.68;8.68;;;;;;;;;;8389823;28;20480;-87
2022/07/20 02:06:29;;;;;;;13.00;8.18;;;;;;;;;;8398887;28;20396;-86
2022/07/20 02:10:34;;;;;;;13.52;8.55;;;;;;;;;;8400492;28;20128;-86
2022/07/20 02:14:37;;;;;;;11.43;7.43;;;;;;;;;;8401005;28;20061;-86
2022/07/20 02:18:39;;;;;;;11.82;7.35;;;;;;;;;;8400705;28;20071;-86
2022/07/20 02:22:42;;;;;;;12.40;7.70;;;;;;;;;;8414831;28;20118;-86
2022/07/20 02:26:46;;;;;;;11.60;7.55;;;;;;;;;;8400186;28;20048;-87
2022/07/20 02:30:50;;;;;;;12.98;8.10;;;;;;;;;;8399262;28;20032;-86
2022/07/20 02:34:52;;;;;;;18.42;9.98;;;;;;;;;;8400253;28;20110;-86
2022/07/20 02:38:55;;;;;;;29.17;16.90;;;;;;;;;;8400220;28;20546;-86
2022/07/20 02:42:59;;;;;;;19.77;11.38;;;;;;;;;;8414341;28;20523;-86
2022/07/20 02:47:01;;;;;;;16.55;10.68;;;;;;;;;;8400068;28;20075;-86
2022/07/20 02:51:04;;;;;;;16.73;10.02;;;;;;;;;;8403847;28;20048;-87
2022/07/20 02:55:08;;;;;;;12.80;8.13;;;;;;;;;;8409158;28;20041;-86
2022/07/20 02:59:12;;;;;;;12.18;7.95;;;;;;;;;;8399369;28;20489;-86
2022/07/20 03:03:15;;;;;;;13.75;7.88;;;;;;;;;;8399472;28;20040;-86
2022/07/20 03:07:18;;;;;;;12.38;7.40;;;;;;;;;;8399252;28;20072;-86
2022/07/20 03:11:21;;;;;;;15.30;7.85;;;;;;;;;;8413048;28;20040;-87
2022/07/20 03:15:25;;;;;;;12.68;7.20;;;;;;;;;;8398862;28;20082;-86
2022/07/20 03:19:28;;;;;;;14.23;7.35;;;;;;;;;;8399136;28;20041;-86
2022/07/20 03:23:30;;;;;;;14.13;7.82;;;;;;;;;;8398865;28;20130;-86
2022/07/20 03:27:33;;;;;;;11.48;7.65;;;;;;;;;;8398495;28;20078;-87
2022/07/20 03:31:37;;;;;;;16.20;6.72;;;;;;;;;;8398326;28;20048;-86
2022/07/20 03:35:39;;;;;;;10.75;7.03;;;;;;;;;;8391891;28;20102;-85
2022/07/20 03:39:42;;;;;;;10.05;6.63;;;;;;;;;;8398318;28;20098;-85
2022/07/20 03:43:45;;;;;;;10.20;6.85;;;;;;;;;;8397954;28;20132;-87
2022/07/20 03:47:49;;;;;;;12.65;6.60;;;;;;;;;;8383976;28;20044;-86
2022/07/20 03:51:52;;;;;;;10.30;6.93;;;;;;;;;;8411859;28;20098;-86
2022/07/20 03:55:55;;;;;;;9.13;6.40;;;;;;;;;;8400113;28;20436;-86
2022/07/20 03:59:57;;;;;;;11.98;8.15;;;;;;;;;;8409334;28;20040;-86
2022/07/20 04:04:02;;;;;;;14.43;8.50;;;;;;;;;;8397238;28;20462;-86
2022/07/20 04:08:08;;;;;;;14.32;8.63;;;;;;;;;;8411255;28;20040;-86
2022/07/20 04:12:12;;;;;;;12.25;8.55;;;;;;;;;;8397146;28;20046;-86
2022/07/20 04:16:15;;;;;;;16.23;8.30;;;;;;;;;;8396575;28;20052;-86
2022/07/20 04:20:19;;;;;;;12.50;6.88;;;;;;;;;;8396953;28;20411;-86
2022/07/20 04:24:22;;;;;;;12.23;7.93;;;;;;;;;;8396784;28;20051;-86
2022/07/20 04:28:25;;;;;;;11.30;7.70;;;;;;;;;;8396547;28;20044;-85
2022/07/20 04:32:27;;;;;;;11.48;7.55;;;;;;;;;;8396634;28;20044;-86
2022/07/20 04:36:31;;;;;;;11.00;6.95;;;;;;;;;;8410979;28;20048;-86
2022/07/20 04:40:34;;;;;;;12.00;7.70;;;;;;;;;;8396796;28;20522;-85
2022/07/20 04:44:37;;;;;;;10.98;7.05;;;;;;;;;;8396466;28;20040;-85
2022/07/20 04:48:40;;;;;;;11.43;7.03;;;;;;;;;;8396305;28;20094;-86
2022/07/20 04:52:44;;;;;;;9.65;6.68;;;;;;;;;;8399455;28;20049;-85
2022/07/20 04:56:47;;;;;;;9.65;6.72;;;;;;;;;;8407380;28;20062;-86
2022/07/20 05:00:50;;;;;;;9.63;6.82;;;;;;;;;;8407375;28;20443;-86
2022/07/20 05:04:53;;;;;;;11.07;6.53;;;;;;;;;;8407224;28;20041;-86
2022/07/20 05:08:57;;;;;;;8.57;6.03;;;;;;;;;;8421256;28;20480;-86
2022/07/20 05:13:00;;;;;;;12.10;6.93;;;;;;;;;;8406835;28;20132;-86
2022/07/20 05:17:03;;;;;;;12.73;8.88;;;;;;;;;;8407039;28;20085;-86
2022/07/20 05:21:07;;;;;;;13.80;11.23;;;;;;;;;;8407044;28;20090;-85
2022/07/20 05:25:13;;;;;;;23.27;18.77;;;;;;;;;;8421044;28;20119;-86
2022/07/20 05:29:16;;;;;;;21.73;18.58;;;;;;;;;;8388182;28;20086;-85
2022/07/20 05:33:20;;;;;;;24.35;21.17;;;;;;;;;;8376167;28;20468;-85
2022/07/20 05:37:29;;;;;;;27.58;21.80;;;;;;;;;;8401074;28;20108;-94
2022/07/20 05:41:37;;;;;;;24.52;19.35;;;;;;;;;;8406518;28;20408;-89
2022/07/20 05:45:44;;;;;;;20.23;15.70;;;;;;;;;;8415319;28;20480;-91
2022/07/20 05:49:52;;;;;;;22.58;16.25;;;;;;;;;;8407063;28;20076;-93
2022/07/20 05:54:02;;;;;;;16.17;12.55;;;;;;;;;;8406201;28;20503;-92
2022/07/20 05:58:11;;;;;;;16.88;14.60;;;;;;;;;;8406411;28;20063;-85
2022/07/20 06:02:16;;;;;;;14.77;11.50;;;;;;;;;;8406108;28;20059;-85
2022/07/20 06:06:21;;;;;;;12.70;7.93;;;;;;;;;;8400707;28;20045;-85
2022/07/20 06:10:30;;;;;;;12.30;7.25;;;;;;;;;;8400601;28;20055;-85
2022/07/20 06:14:41;;;;;;;10.35;6.25;;;;;;;;;;8399007;28;20492;-83
2022/07/20 06:18:52;;;;;;;8.48;5.78;;;;;;;;;;8391493;28;20044;-85
2022/07/20 06:22:59;;;;;;;10.52;6.35;;;;;;;;;;8394596;28;20138;-85
2022/07/20 06:27:05;;;;;;;8.50;5.72;;;;;;;;;;8399427;28;20052;-85
2022/07/20 06:31:24;;;;;;;8.43;5.10;;;;;;;;;;8399699;28;20066;-85
2022/07/20 06:35:39;;;;;;;7.93;5.30;;;;;;;;;;8398851;28;20045;-85
2022/07/20 06:39:51;;;;;;;7.07;5.28;;;;;;;;;;8399976;28;20044;-85
2022/07/20 06:44:01;;;;;;;6.90;4.93;;;;;;;;;;8399984;28;20044;-83
2022/07/20 06:48:08;;;;;;;8.57;4.68;;;;;;;;;;8399729;28;20051;-83
2022/07/20 06:52:12;;;;;;;7.55;4.95;;;;;;;;;;8399705;28;20127;-83
2022/07/20 06:56:16;;;;;;;8.73;5.32;;;;;;;;;;8382324;28;20675;-86
2022/07/20 07:00:24;;;;;;;9.45;4.90;;;;;;;;;;8368417;28;20110;-84
2022/07/20 07:04:33;;;;;;;7.28;4.47;;;;;;;;;;8381046;28;20103;-84
2022/07/20 07:08:38;;;;;;;8.32;4.50;;;;;;;;;;8388932;28;20045;-84
2022/07/20 07:12:45;;;;;;;7.10;4.55;;;;;;;;;;8360214;28;20161;-87
2022/07/20 07:16:57;;;;;;;9.02;4.57;;;;;;;;;;8324397;28;20045;-85
2022/07/20 07:21:14;;;;;;;6.38;4.20;;;;;;;;;;8339443;28;20519;-84
2022/07/20 07:25:19;;;;;;;7.97;4.03;;;;;;;;;;8339986;28;20049;-85
2022/07/20 07:29:23;;;;;;;7.38;3.97;;;;;;;;;;8335081;28;20076;-85
2022/07/20 07:33:29;;;;;;;8.23;4.10;;;;;;;;;;8350760;28;20048;-85
2022/07/20 07:37:34;;;;;;;5.43;3.35;;;;;;;;;;8344329;28;20151;-84
2022/07/20 07:41:38;;;;;;;5.95;3.55;;;;;;;;;;8340938;28;20183;-84
2022/07/20 07:45:41;;;;;;;6.00;3.90;;;;;;;;;;8359760;28;20119;-85
2022/07/20 07:49:45;;;;;;;6.00;3.45;;;;;;;;;;8345920;28;20053;-84
2022/07/20 07:53:58;;;;;;;4.78;3.25;;;;;;;;;;8359151;28;20057;-84
2022/07/20 07:58:11;;;;;;;6.15;3.70;;;;;;;;;;8340290;28;20052;-85
2022/07/20 08:02:19;;;;;;;4.72;3.10;;;;;;;;;;8330018;28;20545;-85
2022/07/20 08:06:41;;;;;;;6.13;2.83;;;;;;;;;;8331552;28;20541;-84
2022/07/20 08:10:57;;;;;;;7.68;3.40;;;;;;;;;;8339749;28;20077;-84
2022/07/20 08:15:09;;;;;;;8.20;3.55;;;;;;;;;;8379310;28;20056;-83
2022/07/20 08:19:21;;;;;;;6.43;3.28;;;;;;;;;;8380647;28;20077;-84
2022/07/20 08:23:34;;;;;;;4.85;3.40;;;;;;;;;;8386366;28;20400;-84
2022/07/20 08:27:51;;;;;;;6.22;3.80;;;;;;;;;;8374580;28;20476;-84
2022/07/20 08:32:16;;;;;;;5.28;3.83;;;;;;;;;;8374260;28;20052;-84
2022/07/20 08:36:41;;;;;;;8.52;3.60;;;;;;;;;;8402923;28;20043;-88
2022/07/20 08:40:54;;;;;;;7.00;3.63;;;;;;;;;;8365892;28;20043;-84
2022/07/20 08:45:06;;;;;;;5.13;3.38;;;;;;;;;;8370939;28;20762;-84
2022/07/20 08:49:25;;;;;;;4.50;2.90;;;;;;;;;;8361106;28;20056;-84
2022/07/20 08:53:33;;;;;;;5.82;3.10;;;;;;;;;;8362411;28;20075;-84
2022/07/20 09:02:51;;;;;;;2.92;2.15;;;;;;;;;;8362096;28;20082;-84
2022/07/20 09:07:10;;;;;;;3.35;2.42;;;;;;;;;;8315972;28;20049;-84
2022/07/20 09:11:30;;;;;;;4.20;2.42;;;;;;;;;;8318297;28;20051;-84
2022/07/20 09:15:39;;;;;;;10.68;2.50;;;;;;;;;;8334176;28;20083;-83
2022/07/20 09:20:17;;;;;;;5.95;2.47;;;;;;;;;;8320654;28;20054;-83
2022/07/20 09:24:32;;;;;;;3.47;2.15;;;;;;;;;;8294706;28;20095;-83
2022/07/20 09:28:56;;;;;;;2.67;1.90;;;;;;;;;;8319561;28;20050;-83
2022/07/20 09:33:14;;;;;;;3.88;2.20;;;;;;;;;;8318227;28;20046;-84
2022/07/20 09:37:49;;;;;;;2.45;1.90;;;;;;;;;;8299635;28;20045;-83
2022/07/20 09:41:59;;;;;;;4.05;2.30;;;;;;;;;;8322869;28;20054;-83
2022/07/20 09:46:39;;;;;;;5.75;2.00;;;;;;;;;;8324161;28;20057;-83
2022/07/20 09:50:53;;;;;;;4.88;2.25;;;;;;;;;;8322214;28;20452;-87
2022/07/20 09:55:00;;;;;;;4.22;2.30;;;;;;;;;;8314805;28;20075;-83
2022/07/20 09:59:10;;;;;;;4.82;2.15;;;;;;;;;;8313523;28;20064;-83
2022/07/20 10:03:16;;;;;;;;;;;;;;;;;;8323067;28;20136;-83
2022/07/20 10:07:20;;;;;;;6.60;3.20;;;;;;;;;;8332062;28;20019;-82
2022/07/20 10:11:26;;;;;;;3.45;1.88;;;;;;;;;;8404014;28;20052;-83
2022/07/20 10:15:39;;;;;;;2.80;1.75;;;;;;;;;;8376711;28;20519;-83
2022/07/20 10:19:45;;;;;;;1.88;1.75;;;;;;;;;;8376662;28;20049;-83
2022/07/20 10:24:19;;;;;;;3.53;1.80;;;;;;;;;;8378580;28;20134;-82
2022/07/20 10:28:38;;;;;;;2.60;1.70;;;;;;;;;;8372637;28;20072;-82
2022/07/20 10:32:56;;;;;;;4.30;1.90;;;;;;;;;;8363814;28;20060;-83
2022/07/20 10:37:27;;;;;;;1.70;1.50;;;;;;;;;;8387761;28;20048;-83
2022/07/20 10:41:36;;;;;;;2.17;1.50;;;;;;;;;;8376276;28;20094;-83
2022/07/20 10:45:41;;;;;;;2.55;1.38;;;;;;;;;;8387143;28;20067;-83
2022/07/20 10:50:07;;;;;;;1.42;1.20;;;;;;;;;;8361039;28;20408;-84
2022/07/20 10:54:40;;;;;;;2.50;1.30;;;;;;;;;;8367605;28;20098;-82
2022/07/20 10:58:46;;;;;;;1.83;1.33;;;;;;;;;;8349206;28;20041;-83
2022/07/20 11:02:53;;;;;;;1.35;1.23;;;;;;;;;;8373276;28;20040;-82
2022/07/20 11:07:01;;;;;;;2.45;1.70;;;;;;;;;;8377348;28;20063;-83
2022/07/20 11:11:07;;;;;;;1.50;1.35;;;;;;;;;;8379899;28;20272;-83
2022/07/20 11:15:11;;;;;;;1.75;1.50;;;;;;;;;;8378977;28;20060;-83
2022/07/20 11:19:17;;;;;;;2.00;1.52;;;;;;;;;;8366320;28;20076;-83
2022/07/20 11:23:23;;;;;;;2.35;1.60;;;;;;;;;;8368715;28;20049;-82
2022/07/20 11:27:27;;;;;;;1.95;1.45;;;;;;;;;;8377485;28;20036;-82
2022/07/20 11:31:31;;;;;;;3.47;1.45;;;;;;;;;;8387977;28;20500;-82
2022/07/20 11:35:38;;;;;;;2.47;1.80;;;;;;;;;;8368348;28;21028;-82
2022/07/20 11:39:43;;;;;;;2.60;1.70;;;;;;;;;;8380190;28;20063;-82
2022/07/20 11:43:48;;;;;;;2.47;1.42;;;;;;;;;;8387405;28;20059;-83
2022/07/20 11:48:22;;;;;;;2.60;1.83;;;;;;;;;;8378198;28;20071;-83
2022/07/20 11:52:50;;;;;;;5.22;1.98;;;;;;;;;;8381830;28;20147;-83
2022/07/20 11:57:01;;;;;;;4.75;1.90;;;;;;;;;;8381385;28;20106;-82
2022/07/20 12:01:08;;;;;;;2.65;1.90;;;;;;;;;;8379933;28;20052;-84
2022/07/20 12:05:19;;;;;;;2.38;1.80;;;;;;;;;;8384775;28;20154;-82
2022/07/20 12:09:47;;;;;;;2.55;1.90;;;;;;;;;;8380381;28;20058;-83
2022/07/20 12:13:56;;;;;;;3.08;1.80;;;;;;;;;;8390254;28;20568;-83
2022/07/20 12:18:00;;;;;;;2.33;1.60;;;;;;;;;;8383794;28;20050;-82
2022/07/20 12:22:16;;;;;;;3.30;2.10;;;;;;;;;;8376377;28;20047;-83
2022/07/20 12:26:47;;;;;;;3.72;1.75;;;;;;;;;;8375125;28;20049;-83
2022/07/20 12:31:11;;;;;;;4.32;2.30;;;;;;;;;;8364553;28;20128;-83
2022/07/20 12:35:30;;;;;;;3.75;2.30;;;;;;;;;;8391698;28;20542;-83
2022/07/20 12:39:53;;;;;;;4.25;2.22;;;;;;;;;;8367986;28;20047;-85
2022/07/20 12:44:29;;;;;;;3.00;2.10;;;;;;;;;;8360574;28;20102;-82
2022/07/20 12:48:50;;;;;;;3.03;2.40;;;;;;;;;;8377313;28;20489;-82
2022/07/20 12:52:59;;;;;;;4.25;2.40;;;;;;;;;;8367161;28;20065;-82
2022/07/20 12:57:11;;;;;;;4.82;2.30;;;;;;;;;;8365816;28;20056;-83
2022/07/20 13:01:29;;;;;;;5.22;2.53;;;;;;;;;;8371587;28;20040;-83
2022/07/20 13:05:49;;;;;;;3.63;2.33;;;;;;;;;;8383950;28;20641;-86
2022/07/20 13:09:55;;;;;;;3.50;2.25;;;;;;;;;;8366157;28;20053;-87
2022/07/20 13:14:06;;;;;;;5.07;2.13;;;;;;;;;;8393022;28;20060;-93
2022/07/20 13:18:12;;;;;;;3.92;2.33;;;;;;;;;;8387620;28;20119;-83
2022/07/20 13:22:16;;;;;;;5.03;2.40;;;;;;;;;;8386514;28;20056;-83
2022/07/20 13:26:20;;;;;;;3.05;2.10;;;;;;;;;;8383182;28;20056;-83
2022/07/20 13:30:25;;;;;;;3.22;2.28;;;;;;;;;;8388928;28;20044;-83
2022/07/20 13:34:30;;;;;;;3.67;2.25;;;;;;;;;;8374874;28;20128;-84
2022/07/20 13:38:35;;;;;;;4.57;2.20;;;;;;;;;;8386201;28;20124;-85
2022/07/20 13:42:38;;;;;;;2.60;1.98;;;;;;;;;;8387802;28;20054;-83
2022/07/20 13:46:43;;;;;;;3.88;2.38;;;;;;;;;;8382639;28;20488;-83
2022/07/20 13:50:48;;;;;;;3.40;2.30;;;;;;;;;;8385002;28;20444;-83
2022/07/20 13:54:52;;;;;;;3.33;2.50;;;;;;;;;;8388576;28;20415;-83
2022/07/20 13:58:55;;;;;;;4.25;2.60;;;;;;;;;;8386345;28;20848;-83
2022/07/20 14:02:58;;;;;;;3.60;2.40;;;;;;;;;;8377062;28;20052;-84
2022/07/20 14:07:03;;;;;;;3.97;2.53;;;;;;;;;;8382214;28;20106;-85
2022/07/20 14:11:07;;;;;;;3.95;2.47;;;;;;;;;;8377284;28;20649;-85
2022/07/20 14:15:11;;;;;;;3.63;2.28;;;;;;;;;;8377647;28;20045;-84
2022/07/20 14:19:15;;;;;;;3.85;2.40;;;;;;;;;;8392457;28;20092;-86
2022/07/20 14:23:20;;;;;;;3.67;2.50;;;;;;;;;;8381747;28;20041;-84
2022/07/20 14:27:48;;;;;;;4.38;2.58;;;;;;;;;;8371945;28;20099;-83
2022/07/20 14:48:43;;;;;;;5.03;2.58;;;;;;;;;;8310830;28;20075;-83
2022/07/20 14:53:21;;;;;;;3.38;2.60;;;;;;;;;;8295228;28;20183;-83
2022/07/20 14:58:11;;;;;;;3.97;2.40;;;;;;;;;;8300488;28;20068;-83
2022/07/20 15:02:32;;;;;;;2.85;2.10;;;;;;;;;;8297512;28;20157;-86
2022/07/20 15:06:44;;;;;;;4.03;2.35;;;;;;;;;;8297585;28;20065;-84
2022/07/20 15:10:54;;;;;;;3.70;2.30;;;;;;;;;;8296422;28;20500;-85
2022/07/20 15:15:02;;;;;;;3.38;2.40;;;;;;;;;;8294211;28;20589;-83
2022/07/20 15:19:24;;;;;;;2.65;2.20;;;;;;;;;;8291831;28;20061;-83
2022/07/20 15:23:50;;;;;;;2.92;2.25;;;;;;;;;;8304597;28;20058;-84
2022/07/20 15:28:11;;;;;;;4.28;2.25;;;;;;;;;;8295717;28;20057;-83
2022/07/20 15:32:23;;;;;;;3.00;2.20;;;;;;;;;;8299517;28;20054;-86
2022/07/20 15:36:40;;;;;;;3.92;2.20;;;;;;;;;;8303318;28;20045;-83
2022/07/20 15:40:48;;;;;;;6.38;2.67;;;;;;;;;;8295646;28;20053;-84
2022/07/20 15:44:54;;;;;;;3.47;2.08;;;;;;;;;;8295208;28;20506;-84
2022/07/20 15:48:57;;;;;;;3.20;2.15;;;;;;;;;;8292535;28;20123;-86
2022/07/20 15:53:02;;;;;;;3.72;2.20;;;;;;;;;;8297230;28;20137;-84
2022/07/20 15:57:23;;;;;;;4.70;2.28;;;;;;;;;;8326481;28;20128;-83
2022/07/20 16:01:27;;;;;;;4.13;2.38;;;;;;;;;;8363089;28;20045;-84
2022/07/20 16:05:30;;;;;;;6.30;2.22;;;;;;;;;;8362656;28;20071;-84
2022/07/20 16:09:36;;;;;;;6.03;2.30;;;;;;;;;;8362190;28;20044;-84
2022/07/20 16:13:44;;;;;;;5.75;2.28;;;;;;;;;;8362016;28;20049;-84
2022/07/20 16:17:51;;;;;;;3.78;2.17;;;;;;;;;;8362794;28;20605;-84
2022/07/20 16:22:03;;;;;;;6.68;2.00;;;;;;;;;;8361575;28;20488;-85
2022/07/20 16:26:22;;;;;;;4.20;2.28;;;;;;;;;;8363711;28;20056;-84
2022/07/20 16:30:28;;;;;;;4.93;2.50;;;;;;;;;;8361933;28;20049;-83
2022/07/20 16:34:36;;;;;;;3.95;2.20;;;;;;;;;;8361699;28;20041;-83
2022/07/20 16:38:52;;;;;;;5.20;2.40;;;;;;;;;;8361592;28;20485;-88
2022/07/20 16:43:05;;;;;;;6.35;2.33;;;;;;;;;;8365222;28;20128;-84
2022/07/20 16:47:10;;;;;;;3.80;2.23;;;;;;;;;;8364561;28;20095;-84
2022/07/20 16:51:14;;;;;;;5.85;2.63;;;;;;;;;;8378038;28;20045;-84
2022/07/20 16:55:17;;;;;;;4.53;2.60;;;;;;;;;;8393968;28;20046;-85
2022/07/20 16:59:21;;;;;;;5.10;2.72;;;;;;;;;;8396418;28;20048;-84
2022/07/20 17:03:26;;;;;;;4.13;2.50;;;;;;;;;;8395823;28;20132;-84
2022/07/20 17:07:30;;;;;;;4.05;2.72;;;;;;;;;;8396451;28;20460;-84
2022/07/20 17:11:34;;;;;;;3.47;2.47;;;;;;;;;;8395998;28;20108;-84
2022/07/20 17:15:38;;;;;;;5.13;2.70;;;;;;;;;;8396174;28;20132;-84
2022/07/20 17:19:44;;;;;;;4.55;2.78;;;;;;;;;;8395983;28;20048;-84
2022/07/20 17:23:47;;;;;;;3.65;2.63;;;;;;;;;;8396045;28;20377;-84
2022/07/20 17:27:51;;;;;;;3.42;2.55;;;;;;;;;;8396012;28;20049;-83
2022/07/20 17:31:55;;;;;;;5.20;2.97;;;;;;;;;;8396228;28;20041;-84
2022/07/20 17:36:00;;;;;;;11.07;3.42;;;;;;;;;;8395868;28;20056;-85
2022/07/20 17:40:05;;;;;;;5.78;2.90;;;;;;;;;;8393241;28;20106;-89
2022/07/20 17:44:09;;;;;;;5.85;3.33;;;;;;;;;;8385347;28;20037;-85
2022/07/20 17:48:12;;;;;;;4.05;2.65;;;;;;;;;;8388487;28;20078;-85
2022/07/20 17:52:17;;;;;;;3.92;2.85;;;;;;;;;;8394970;28;20449;-85
2022/07/20 17:56:21;;;;;;;4.68;2.70;;;;;;;;;;8395849;28;20044;-85
2022/07/20 18:00:24;;;;;;;5.70;3.22;;;;;;;;;;8397434;28;20098;-85
2022/07/20 18:04:28;;;;;;;6.90;3.03;;;;;;;;;;8401127;28;20051;-85
2022/07/20 18:08:32;;;;;;;6.03;3.53;;;;;;;;;;8401191;28;20492;-85
2022/07/20 18:12:36;;;;;;;7.10;3.78;;;;;;;;;;8401824;28;20099;-85
2022/07/20 18:16:41;;;;;;;5.00;3.10;;;;;;;;;;8400754;28;20056;-84
2022/07/20 18:20:44;;;;;;;6.90;3.45;;;;;;;;;;8400838;28;20044;-85
2022/07/20 18:24:49;;;;;;;6.47;3.72;;;;;;;;;;8400564;28;20493;-85
2022/07/20 18:28:52;;;;;;;8.48;3.38;;;;;;;;;;8400468;28;20041;-84
2022/07/20 18:32:55;;;;;;;12.73;6.18;;;;;;;;;;8400480;28;20051;-84
2022/07/20 18:36:59;;;;;;;15.73;8.32;;;;;;;;;;8400229;28;20044;-84
2022/07/20 18:41:04;;;;;;;15.50;8.10;;;;;;;;;;8400076;28;20119;-84
2022/07/20 18:45:08;;;;;;;18.75;10.15;;;;;;;;;;8400007;28;20044;-85
2022/07/20 18:49:11;;;;;;;13.45;6.63;;;;;;;;;;8396328;28;20515;-84
2022/07/20 18:53:16;;;;;;;9.65;5.80;;;;;;;;;;8393312;28;20040;-93
2022/07/20 18:57:21;;;;;;;8.35;4.93;;;;;;;;;;8388921;28;20094;-88
2022/07/20 19:01:25;;;;;;;6.82;4.20;;;;;;;;;;8393308;28;20488;-95
2022/07/20 19:05:30;;;;;;;6.38;3.90;;;;;;;;;;8395072;28;20044;-85
2022/07/20 19:09:34;;;;;;;9.25;4.43;;;;;;;;;;8386805;28;20076;-84
2022/07/20 19:13:39;;;;;;;9.45;4.93;;;;;;;;;;8391035;28;20059;-84
2022/07/20 19:17:44;;;;;;;8.35;4.90;;;;;;;;;;8385702;28;20040;-85
2022/07/20 19:21:49;;;;;;;10.70;5.50;;;;;;;;;;8378711;28;20041;-84
2022/07/20 19:25:53;;;;;;;7.28;4.80;;;;;;;;;;8379642;28;20052;-88
2022/07/20 19:29:58;;;;;;;50.95;17.42;;;;;;;;;;8393807;28;20048;-84
2022/07/20 19:34:02;;;;;;;33.65;13.10;;;;;;;;;;8382575;28;20044;-85
2022/07/20 19:38:05;;;;;;;14.23;6.85;;;;;;;;;;8390901;28;20047;-84
2022/07/20 19:42:08;;;;;;;7.72;5.32;;;;;;;;;;8397691;28;20048;-84
2022/07/20 19:46:17;;;;;;;9.65;5.15;;;;;;;;;;8397154;28;20102;-85
2022/07/20 19:50:25;;;;;;;8.35;5.95;;;;;;;;;;8384672;28;20390;-85
2022/07/20 19:54:34;;;;;;;7.32;4.30;;;;;;;;;;8381705;28;20047;-89
2022/07/20 19:58:39;;;;;;;42.40;15.60;;;;;;;;;;8394779;28;20060;-85
2022/07/20 20:02:44;;;;;;;13.00;7.18;;;;;;;;;;8388104;28;20040;-87
2022/07/20 20:06:48;;;;;;;11.63;6.63;;;;;;;;;;8397380;28;20056;-85
2022/07/20 20:10:51;;;;;;;10.00;5.20;;;;;;;;;;8397434;28;20506;-84
2022/07/20 20:14:55;;;;;;;11.23;5.47;;;;;;;;;;8396995;28;20057;-85
2022/07/20 20:19:07;;;;;;;6.25;4.43;;;;;;;;;;8397197;28;20044;-88
2022/07/20 20:23:13;;;;;;;7.70;4.47;;;;;;;;;;8394155;28;20057;-85
2022/07/20 20:27:17;;;;;;;6.20;4.85;;;;;;;;;;8383251;28;20048;-85
2022/07/20 20:31:21;;;;;;;7.05;4.85;;;;;;;;;;8397176;28;20048;-85
2022/07/20 20:35:26;;;;;;;6.55;4.80;;;;;;;;;;8396657;28;20075;-84
2022/07/20 20:39:30;;;;;;;7.05;4.60;;;;;;;;;;8396873;28;20055;-85
2022/07/20 20:43:33;;;;;;;9.25;4.82;;;;;;;;;;8396700;28;20067;-85
2022/07/20 20:47:37;;;;;;;8.15;4.70;;;;;;;;;;8396453;28;20040;-84
2022/07/20 20:51:42;;;;;;;7.47;4.60;;;;;;;;;;8396563;28;20090;-84
2022/07/20 20:55:46;;;;;;;7.88;4.82;;;;;;;;;;8396403;28;20037;-85
2022/07/20 20:59:49;;;;;;;8.25;5.05;;;;;;;;;;8396553;28;20441;-84
2022/07/20 21:03:53;;;;;;;7.85;4.90;;;;;;;;;;8396347;28;20060;-85
2022/07/20 21:07:58;;;;;;;10.30;5.10;;;;;;;;;;8396381;28;20106;-85
2022/07/20 21:12:02;;;;;;;8.57;5.30;;;;;;;;;;8396260;28;20507;-85
2022/07/20 21:16:06;;;;;;;8.45;5.15;;;;;;;;;;8396247;28;20107;-85
2022/07/20 21:20:10;;;;;;;9.68;5.45;;;;;;;;;;8396097;28;20045;-85
2022/07/20 21:24:17;;;;;;;9.82;6.13;;;;;;;;;;8396077;28;20056;-85
2022/07/20 21:28:20;;;;;;;8.40;5.78;;;;;;;;;;8395921;28;20400;-85
2022/07/20 21:32:23;;;;;;;7.20;4.85;;;;;;;;;;8395854;28;20439;-85
2022/07/20 21:36:26;;;;;;;9.38;5.35;;;;;;;;;;8400556;28;20389;-85
2022/07/20 21:40:32;;;;;;;7.82;5.75;;;;;;;;;;8402119;28;20064;-86
2022/07/20 21:44:38;;;;;;;8.25;5.38;;;;;;;;;;8402146;28;20040;-85
2022/07/20 21:48:41;;;;;;;8.75;5.95;;;;;;;;;;8401994;28;20053;-85
2022/07/20 21:52:44;;;;;;;8.43;5.35;;;;;;;;;;8401529;28;20044;-85
2022/07/20 21:56:48;;;;;;;7.03;5.25;;;;;;;;;;8401645;28;20044;-85
2022/07/20 22:00:51;;;;;;;8.85;5.68;;;;;;;;;;8401582;28;20047;-85
2022/07/20 22:04:54;;;;;;;8.68;5.72;;;;;;;;;;8401496;28;20433;-85
2022/07/20 22:08:57;;;;;;;9.65;6.28;;;;;;;;;;8401269;28;20546;-85
2022/07/20 22:13:01;;;;;;;9.13;6.22;;;;;;;;;;8401194;28;20044;-85
2022/07/20 22:17:04;;;;;;;9.63;6.30;;;;;;;;;;8420273;28;20403;-85
2022/07/20 22:21:07;;;;;;;8.48;5.97;;;;;;;;;;8406324;28;20401;-85
2022/07/20 22:25:10;;;;;;;9.63;6.03;;;;;;;;;;8414925;28;20067;-86
2022/07/20 22:29:15;;;;;;;9.27;6.13;;;;;;;;;;8400721;28;20052;-86
2022/07/20 22:33:18;;;;;;;10.98;5.60;;;;;;;;;;8400949;28;20481;-85
2022/07/20 22:37:21;;;;;;;9.65;6.00;;;;;;;;;;8400332;28;20041;-85
2022/07/20 22:41:24;;;;;;;8.70;5.80;;;;;;;;;;8400543;28;20045;-86
2022/07/20 22:45:28;;;;;;;8.63;5.95;;;;;;;;;;8400096;28;20048;-86
2022/07/20 22:49:30;;;;;;;9.63;6.53;;;;;;;;;;8386256;28;20040;-87
2022/07/20 22:53:33;;;;;;;9.70;6.38;;;;;;;;;;8399980;28;20048;-86
2022/07/20 22:57:43;;;;;;;9.85;6.35;;;;;;;;;;8399857;28;20462;-85
2022/07/20 23:01:47;;;;;;;12.23;6.75;;;;;;;;;;8401290;28;20044;-86
2022/07/20 23:05:50;;;;;;;12.55;7.00;;;;;;;;;;8414932;28;20469;-85
2022/07/20 23:09:52;;;;;;;9.63;6.43;;;;;;;;;;8399643;28;20037;-87
2022/07/20 23:13:55;;;;;;;10.63;6.68;;;;;;;;;;8397285;28;20408;-87
2022/07/20 23:17:59;;;;;;;10.15;6.05;;;;;;;;;;8399090;28;20099;-86
2022/07/20 23:22:02;;;;;;;9.82;6.55;;;;;;;;;;8399235;28;20048;-86
2022/07/20 23:26:05;;;;;;;9.00;6.18;;;;;;;;;;8399129;28;20404;-85
2022/07/20 23:30:10;;;;;;;9.35;6.13;;;;;;;;;;8398887;28;20044;-84
2022/07/20 23:34:14;;;;;;;10.30;6.45;;;;;;;;;;8398546;28;20045;-85
2022/07/20 23:38:20;;;;;;;12.13;6.45;;;;;;;;;;8398427;28;20052;-86
2022/07/20 23:42:23;;;;;;;9.80;6.57;;;;;;;;;;8398147;28;20048;-85
2022/07/20 23:46:25;;;;;;;11.55;6.43;;;;;;;;;;8398124;28;20068;-85
2022/07/20 23:50:33;;;;;;;10.43;6.50;;;;;;;;;;8398006;28;20047;-85
2022/07/20 23:54:36;;;;;;;12.63;6.72;;;;;;;;;;8397918;28;20044;-85
2022/07/20 23:58:38;;;;;;;12.50;6.28;;;;;;;;;;8381902;28;20045;-87
